Preview of NWS' New Version of Forecast
This preview is not operational and should not be used for support decisions.

Terminal Aerodrome Forecast (TAF)

Issued by National Weather Service (NWS)

                            
000
FTAK31 PAFC 200526
TAFADL
TAF
PADL 200526Z 2006/2106 36006KT P6SM -RA BKN007 OVC025
     FM201000 32003KT P6SM -SHRA BKN015 OVC025
     FM202000 31010G16KT P6SM -SHRA OVC035=